createdAt,value
2022-11-10T03:59:25.969Z,0.00
2022-11-10T04:00:25.424Z,0.00
2022-11-10T04:01:24.891Z,0.00
2022-11-10T04:02:24.954Z,0.00
2022-11-10T04:03:25.349Z,0.00
2022-11-10T04:04:25.488Z,0.00
2022-11-10T04:05:25.403Z,0.00
2022-11-10T04:06:25.416Z,0.00
2022-11-10T04:07:24.931Z,0.00
2022-11-10T04:08:25.428Z,0.00
2022-11-10T04:09:24.916Z,0.00
2022-11-10T04:10:25.405Z,0.00
2022-11-10T04:11:24.885Z,0.00
2022-11-10T04:12:25.294Z,0.00
2022-11-10T04:13:24.027Z,0.00
2022-11-10T04:14:25.150Z,0.00
2022-11-10T04:15:23.716Z,0.00
2022-11-10T04:16:23.734Z,0.00
2022-11-10T04:17:25.952Z,0.00
2022-11-10T04:18:24.555Z,0.00
2022-11-10T04:19:23.759Z,0.00
2022-11-10T04:20:23.687Z,0.00
2022-11-10T04:21:23.681Z,0.00
2022-11-10T04:22:24.947Z,0.00
2022-11-10T04:23:26.061Z,0.00
2022-11-10T04:24:23.741Z,0.00
2022-11-10T04:25:23.684Z,0.00
2022-11-10T04:26:23.838Z,0.00
2022-11-10T04:27:24.714Z,0.00
2022-11-10T04:28:25.432Z,0.00
2022-11-10T04:29:25.088Z,0.00
2022-11-10T04:30:24.709Z,0.00
2022-11-10T04:31:24.649Z,0.00
2022-11-10T04:32:25.763Z,0.00
2022-11-10T04:33:25.075Z,0.00
2022-11-10T04:34:25.453Z,0.00
2022-11-10T04:35:25.473Z,0.00
2022-11-10T04:36:25.450Z,0.00
2022-11-10T04:37:25.429Z,0.00
2022-11-10T04:38:24.975Z,0.00
2022-11-10T04:39:25.443Z,0.00
2022-11-10T04:40:25.422Z,0.00
2022-11-10T04:41:25.436Z,0.00
2022-11-10T04:42:25.462Z,0.00
2022-11-10T04:43:25.389Z,0.00
2022-11-10T04:44:24.600Z,0.00
2022-11-10T04:45:24.602Z,0.00
2022-11-10T04:46:24.581Z,0.00
2022-11-10T04:47:25.471Z,0.00
2022-11-10T04:48:25.963Z,0.00
2022-11-10T04:49:25.959Z,0.00
2022-11-10T04:50:23.606Z,0.00
2022-11-10T04:51:25.529Z,0.00
2022-11-10T04:52:23.590Z,0.00
2022-11-10T04:53:23.973Z,0.00
2022-11-10T04:54:25.001Z,0.00
2022-11-10T04:55:23.549Z,0.00
2022-11-10T04:56:23.551Z,0.00
2022-11-10T04:57:23.554Z,0.00
2022-11-10T04:58:24.961Z,0.00
2022-11-10T04:59:24.539Z,0.00
2022-11-10T05:00:24.811Z,0.00
2022-11-10T05:01:25.524Z,0.00
2022-11-10T05:02:23.520Z,0.00
2022-11-10T05:03:25.564Z,0.00
2022-11-10T05:04:26.091Z,0.00
2022-11-10T05:05:24.526Z,0.00
2022-11-10T05:06:24.963Z,0.00
2022-11-10T05:07:26.467Z,0.00
2022-11-10T05:08:24.977Z,0.00
2022-11-10T05:09:25.007Z,0.00
2022-11-10T05:10:25.488Z,0.00
2022-11-10T05:11:24.969Z,0.00
2022-11-10T05:12:25.517Z,0.00
2022-11-10T05:13:25.594Z,0.00
2022-11-10T05:14:25.589Z,0.00
2022-11-10T05:15:25.452Z,0.00
2022-11-10T05:16:24.982Z,0.00
2022-11-10T05:17:24.474Z,0.00
2022-11-10T05:18:24.965Z,0.00
2022-11-10T05:19:25.522Z,0.00
2022-11-10T05:20:24.976Z,0.00
2022-11-10T05:21:25.003Z,0.00
2022-11-10T05:22:25.013Z,0.00
2022-11-10T05:23:24.590Z,0.00
2022-11-10T05:24:25.109Z,0.00
2022-11-10T05:25:25.009Z,0.00
2022-11-10T05:26:24.504Z,0.00
2022-11-10T05:27:24.451Z,0.00
2022-11-10T05:28:24.498Z,0.00
2022-11-10T05:29:24.551Z,0.00
2022-11-10T05:30:25.068Z,0.00
2022-11-10T05:31:24.982Z,0.00
2022-11-10T05:32:25.005Z,0.00
2022-11-10T05:33:25.384Z,0.00
2022-11-10T05:34:25.089Z,0.00
2022-11-10T05:35:25.005Z,0.00
2022-11-10T05:36:25.082Z,0.00
2022-11-10T05:37:24.990Z,0.00
2022-11-10T05:38:24.990Z,0.00
2022-11-10T05:39:24.392Z,0.00
2022-11-10T05:40:25.055Z,0.00
2022-11-10T05:41:24.380Z,0.00
2022-11-10T05:42:24.981Z,0.00
2022-11-10T05:43:24.763Z,0.00
2022-11-10T05:44:25.027Z,0.00
2022-11-10T05:45:25.007Z,0.00
2022-11-10T05:46:25.004Z,0.00
2022-11-10T05:47:23.391Z,0.00
2022-11-10T05:48:25.202Z,0.00
2022-11-10T05:49:25.213Z,0.00
2022-11-10T05:50:25.031Z,0.00
2022-11-10T05:51:25.052Z,0.00
2022-11-10T05:52:25.013Z,0.00
2022-11-10T05:53:24.732Z,0.00
2022-11-10T05:54:25.004Z,0.00
2022-11-10T05:55:25.029Z,0.00
2022-11-10T05:56:24.994Z,0.00
2022-11-10T05:57:24.388Z,0.00
2022-11-10T05:58:24.589Z,0.00
2022-11-10T05:59:23.355Z,0.00
2022-11-10T06:00:23.321Z,0.00
2022-11-10T06:01:25.168Z,0.00
2022-11-10T06:02:24.997Z,0.00
2022-11-10T06:03:24.882Z,0.00
2022-11-10T06:04:25.006Z,0.00
2022-11-10T06:05:30.676Z,0.00
2022-11-10T06:06:25.127Z,0.00
2022-11-10T06:07:24.449Z,0.00
2022-11-10T06:08:25.124Z,0.00
2022-11-10T06:09:25.009Z,0.00
2022-11-10T06:10:24.410Z,0.00
2022-11-10T06:11:25.030Z,0.00
2022-11-10T06:12:25.027Z,0.00
2022-11-10T06:13:25.018Z,4.00
2022-11-10T06:14:24.423Z,4.00
2022-11-10T06:15:24.304Z,4.00
2022-11-10T06:16:25.150Z,0.00
2022-11-10T06:17:23.281Z,4.00
2022-11-10T06:18:24.905Z,4.00
2022-11-10T06:19:23.327Z,4.00
2022-11-10T06:20:24.247Z,4.00
2022-11-10T06:21:24.888Z,4.00
2022-11-10T06:27:36.236Z,16.00
2022-11-10T06:28:36.006Z,20.00
2022-11-10T06:29:37.766Z,20.00
2022-11-10T06:30:35.256Z,20.00
2022-11-10T06:31:37.406Z,24.00
2022-11-10T06:32:35.252Z,28.00
2022-11-10T06:33:35.264Z,32.00
2022-11-10T06:34:35.244Z,32.00
2022-11-10T06:35:36.266Z,36.00
2022-11-10T06:36:37.473Z,40.00
2022-11-10T06:37:37.270Z,44.00
2022-11-10T06:38:35.229Z,48.00
2022-11-10T06:39:36.798Z,52.00
2022-11-10T06:40:35.243Z,60.00
2022-11-10T06:41:36.841Z,60.00
2022-11-10T06:42:36.829Z,68.00
2022-11-10T06:43:35.206Z,72.00
2022-11-10T06:44:42.020Z,80.00
2022-11-10T06:45:35.357Z,88.00
2022-11-10T06:46:42.177Z,96.00
2022-11-10T06:47:35.766Z,104.00
2022-11-10T06:48:42.846Z,108.00
2022-11-10T06:49:35.181Z,112.00
2022-11-10T06:50:36.793Z,120.00
2022-11-10T06:51:35.331Z,132.00
2022-11-10T06:52:35.717Z,136.00
2022-11-10T06:53:35.296Z,152.00
2022-11-10T06:54:35.792Z,160.00
2022-11-10T06:55:38.030Z,172.00
2022-11-10T06:56:35.483Z,192.00
2022-11-10T06:57:36.253Z,212.00
2022-11-10T06:58:36.835Z,224.00
2022-11-10T06:59:35.199Z,240.00
2022-11-10T07:00:35.145Z,240.00
2022-11-10T07:01:35.321Z,264.00
2022-11-10T07:02:35.133Z,284.00
2022-11-10T07:04:05.033Z,292.00
2022-11-10T07:04:35.254Z,268.00
2022-11-10T07:05:35.094Z,264.00
2022-11-10T07:06:36.934Z,276.00
2022-11-10T07:08:35.105Z,300.00
2022-11-10T07:09:36.816Z,304.00
2022-11-10T07:10:35.148Z,312.00
2022-11-10T07:11:36.836Z,344.00
2022-11-10T07:12:36.792Z,372.00
2022-11-10T07:13:35.078Z,388.00
2022-11-10T07:14:36.868Z,424.00
2022-11-10T07:15:36.782Z,488.00
2022-11-10T07:16:36.811Z,508.00
2022-11-10T07:17:36.788Z,532.00
2022-11-10T07:18:36.800Z,568.00
2022-11-10T07:19:40.638Z,620.00
2022-11-10T07:20:36.840Z,656.00
2022-11-10T07:21:40.376Z,652.00
2022-11-10T07:22:35.120Z,664.00
2022-11-10T07:23:36.373Z,668.00
2022-11-10T07:24:36.955Z,660.00
2022-11-10T07:25:36.822Z,664.00
2022-11-10T07:26:36.423Z,668.00
2022-11-10T07:27:36.803Z,660.00
2022-11-10T07:28:38.091Z,644.00
2022-11-10T07:29:35.002Z,612.00
2022-11-10T07:30:36.823Z,600.00
2022-11-10T07:31:36.808Z,608.00
2022-11-10T07:32:36.891Z,584.00
2022-11-10T07:33:36.929Z,620.00
2022-11-10T07:34:36.855Z,632.00
2022-11-10T07:35:36.827Z,628.00
2022-11-10T07:36:36.842Z,636.00
2022-11-10T07:37:36.378Z,656.00
2022-11-10T07:38:35.077Z,652.00
2022-11-10T07:39:34.963Z,680.00
2022-11-10T07:40:36.864Z,736.00
2022-11-10T07:41:34.995Z,696.00
2022-11-10T07:42:36.859Z,724.00
2022-11-10T07:43:35.961Z,804.00
2022-11-10T07:44:34.980Z,728.00
2022-11-10T07:45:38.478Z,712.00
2022-11-10T07:46:34.973Z,632.00
2022-11-10T07:47:37.039Z,596.00
2022-11-10T07:48:35.807Z,604.00
2022-11-10T07:49:42.842Z,672.00
2022-11-10T07:51:35.104Z,764.00
2022-11-10T07:52:35.238Z,1076.00
2022-11-10T07:53:34.965Z,752.00
2022-11-10T07:54:37.879Z,732.00
2022-11-10T07:55:37.083Z,756.00
2022-11-10T07:56:39.277Z,692.00
2022-11-10T07:57:34.934Z,680.00
2022-11-10T07:58:37.955Z,668.00
2022-11-10T07:59:34.919Z,692.00
2022-11-10T08:00:36.892Z,864.00
2022-11-10T08:01:35.346Z,876.00
2022-11-10T08:02:39.779Z,700.00
2022-11-10T08:03:34.979Z,656.00
2022-11-10T08:04:36.822Z,692.00
2022-11-10T08:05:37.436Z,1196.00
2022-11-10T08:06:37.353Z,1256.00
2022-11-10T08:07:36.909Z,1016.00
2022-11-10T08:08:34.908Z,1492.00
2022-11-10T08:09:34.917Z,1508.00
2022-11-10T08:10:36.895Z,1400.00
2022-11-10T08:11:36.215Z,1320.00
2022-11-10T08:12:36.396Z,1564.00
2022-11-10T08:13:37.111Z,1216.00
2022-11-10T08:14:36.791Z,1624.00
2022-11-10T08:15:35.866Z,1648.00
2022-11-10T08:16:34.893Z,1652.00
2022-11-10T08:17:35.501Z,1560.00
2022-11-10T08:18:37.516Z,1596.00
2022-11-10T08:19:34.886Z,1696.00
2022-11-10T08:20:56.577Z,1652.00
2022-11-10T08:21:34.873Z,1228.00
2022-11-10T08:22:36.341Z,1656.00
2022-11-10T08:23:35.030Z,1708.00
2022-11-10T08:24:36.379Z,1576.00
2022-11-10T08:25:35.586Z,1056.00
2022-11-10T08:26:36.462Z,1776.00
2022-11-10T08:27:34.857Z,1372.00
2022-11-10T08:28:38.304Z,1852.00
2022-11-10T08:29:43.728Z,1964.00
2022-11-10T08:30:38.011Z,1976.00
2022-11-10T08:31:55.929Z,1920.00
2022-11-10T08:32:35.659Z,1772.00
2022-11-10T08:33:36.925Z,1592.00
2022-11-10T08:34:34.862Z,1964.00
2022-11-10T08:35:35.547Z,1920.00
2022-11-10T08:36:35.103Z,1904.00
2022-11-10T08:37:37.405Z,2004.00
2022-11-10T08:38:36.525Z,1984.00
2022-11-10T08:39:39.309Z,2028.00
2022-11-10T08:40:35.330Z,2048.00
2022-11-10T08:41:34.807Z,2068.00
2022-11-10T08:42:39.720Z,2136.00
2022-11-10T08:43:36.171Z,2068.00
2022-11-10T08:45:07.502Z,2044.00
2022-11-10T08:45:41.444Z,2080.00
2022-11-10T08:46:41.450Z,2156.00
2022-11-10T08:47:35.010Z,2144.00
2022-11-10T08:48:36.516Z,2200.00
2022-11-10T08:49:36.389Z,2132.00
2022-11-10T08:50:36.433Z,2128.00
2022-11-10T08:51:39.219Z,2264.00
2022-11-10T08:52:36.396Z,2248.00
2022-11-10T08:53:36.366Z,2264.00
2022-11-10T08:54:36.429Z,2216.00
2022-11-10T08:55:34.810Z,2252.00
2022-11-10T08:56:34.858Z,2252.00
2022-11-10T08:57:34.777Z,2304.00
2022-11-10T08:58:48.581Z,2180.00
2022-11-10T08:59:37.828Z,2248.00
2022-11-10T09:00:36.558Z,2280.00
2022-11-10T09:01:36.470Z,2296.00
2022-11-10T09:02:36.470Z,2344.00
2022-11-10T09:03:36.420Z,2372.00
2022-11-10T09:04:34.840Z,2368.00
2022-11-10T09:05:36.421Z,2356.00
2022-11-10T09:06:36.451Z,2400.00
2022-11-10T09:07:36.383Z,2452.00
2022-11-10T09:08:36.412Z,2492.00
2022-11-10T09:10:36.439Z,2560.00
2022-11-10T09:11:34.743Z,2636.00
2022-11-10T09:12:34.725Z,2656.00
2022-11-10T09:13:36.632Z,2760.00
2022-11-10T09:14:34.741Z,2720.00
2022-11-10T09:15:34.769Z,2776.00
2022-11-10T09:16:34.706Z,2780.00
2022-11-10T09:17:34.697Z,2880.00
2022-11-10T09:18:36.403Z,2968.00
2022-11-10T09:19:34.784Z,2972.00
2022-11-10T09:20:36.396Z,2984.00
2022-11-10T09:21:36.397Z,2816.00
2022-11-10T09:22:36.463Z,3028.00
2022-11-10T09:23:36.460Z,3068.00
2022-11-10T09:24:34.718Z,2796.00
2022-11-10T09:25:34.740Z,2656.00
2022-11-10T09:26:34.725Z,2196.00
2022-11-10T09:27:36.584Z,2288.00
2022-11-10T09:28:35.700Z,2420.00
2022-11-10T09:29:36.408Z,1928.00
2022-11-10T09:30:36.421Z,2004.00
2022-11-10T09:31:36.427Z,2204.00
2022-11-10T09:32:35.919Z,2344.00
2022-11-10T09:33:36.409Z,1676.00
2022-11-10T09:34:37.435Z,1956.00
2022-11-10T09:35:34.670Z,2104.00
2022-11-10T09:36:34.673Z,2680.00
2022-11-10T09:37:36.419Z,2784.00
2022-11-10T09:38:34.744Z,2748.00
2022-11-10T09:39:34.668Z,2728.00
2022-11-10T09:40:35.948Z,2768.00
2022-11-10T09:41:34.665Z,2772.00
2022-11-10T09:42:34.678Z,2728.00
2022-11-10T09:43:34.670Z,2684.00
2022-11-10T09:44:38.473Z,2752.00
2022-11-10T09:45:39.372Z,2804.00
2022-11-10T09:46:36.536Z,2800.00
2022-11-10T09:47:58.588Z,2904.00
2022-11-10T09:48:37.987Z,2904.00
2022-11-10T09:49:34.972Z,2820.00
2022-11-10T09:50:41.166Z,2784.00
2022-11-10T09:51:36.919Z,2520.00
2022-11-10T09:52:36.548Z,2600.00
2022-11-10T09:53:36.517Z,2492.00
2022-11-10T09:54:42.850Z,2428.00
2022-11-10T09:55:35.152Z,2672.00
2022-11-10T09:56:55.652Z,2784.00
2022-11-10T09:57:36.578Z,2732.00
2022-11-10T10:00:37.202Z,2236.00
2022-11-10T10:01:12.944Z,1896.00
2022-11-10T10:02:15.132Z,2376.00
2022-11-10T10:13:39.481Z,3028.00
2022-11-10T10:14:38.154Z,3120.00
2022-11-10T10:15:37.932Z,2984.00
2022-11-10T10:16:40.083Z,2704.00
2022-11-10T10:17:41.089Z,2660.00
2022-11-10T10:18:38.253Z,2628.00
2022-11-10T10:19:37.840Z,2492.00
2022-11-10T10:20:39.934Z,2384.00
2022-11-10T10:21:37.834Z,2184.00
2022-11-10T10:22:39.403Z,2164.00
2022-11-10T10:24:07.688Z,2644.00
2022-11-10T10:24:37.873Z,2508.00
2022-11-10T10:25:44.989Z,2432.00
2022-11-10T10:26:44.271Z,2500.00
2022-11-10T10:27:39.714Z,1404.00
2022-11-10T10:28:40.665Z,2412.00
2022-11-10T10:29:59.838Z,2364.00
2022-11-10T10:30:38.320Z,2328.00
2022-11-10T10:31:37.937Z,2516.00
2022-11-10T10:32:42.626Z,2712.00
2022-11-10T10:33:38.499Z,2760.00
2022-11-10T10:34:38.422Z,2760.00
2022-11-10T10:35:41.786Z,2312.00
2022-11-10T10:36:40.064Z,2632.00
2022-11-10T10:37:38.455Z,2096.00
2022-11-10T10:38:38.019Z,2468.00
2022-11-10T10:39:38.025Z,2556.00
2022-11-10T10:40:39.427Z,2444.00
2022-11-10T10:41:37.853Z,2388.00
2022-11-10T10:42:39.843Z,2844.00
2022-11-10T10:43:38.836Z,2964.00
2022-11-10T10:44:46.848Z,2652.00
2022-11-10T10:45:38.383Z,2424.00
2022-11-10T10:46:38.573Z,2652.00
2022-11-10T10:47:41.076Z,3760.00
2022-11-10T10:48:38.254Z,3308.00
2022-11-10T10:49:39.552Z,2692.00
2022-11-10T10:50:39.864Z,2888.00
2022-11-10T10:51:39.428Z,2524.00
2022-11-10T10:52:39.450Z,2336.00
2022-11-10T10:53:39.624Z,2976.00
2022-11-10T10:54:40.718Z,3028.00
2022-11-10T10:55:39.508Z,1992.00
2022-11-10T10:56:40.620Z,2148.00
2022-11-10T10:57:52.476Z,2552.00
2022-11-10T10:58:39.666Z,3760.00
2022-11-10T10:59:39.545Z,3136.00
2022-11-10T11:00:40.625Z,1992.00
2022-11-10T11:01:37.892Z,2152.00
2022-11-10T11:02:39.501Z,2576.00
2022-11-10T11:03:37.922Z,3536.00
2022-11-10T11:04:39.458Z,2272.00
2022-11-10T11:05:37.814Z,2200.00
2022-11-10T11:06:37.953Z,2472.00
2022-11-10T11:07:37.809Z,2484.00
2022-11-10T11:08:40.493Z,2292.00
2022-11-10T11:09:38.834Z,3072.00
2022-11-10T11:10:38.676Z,3156.00
2022-11-10T11:11:37.813Z,3960.00
2022-11-10T11:12:43.494Z,3804.00
2022-11-10T11:13:38.904Z,3280.00
2022-11-10T11:14:43.320Z,2580.00
2022-11-10T11:16:43.319Z,3652.00
2022-11-10T11:17:39.053Z,3064.00
2022-11-10T11:18:39.444Z,3864.00
2022-11-10T11:19:37.799Z,3716.00
2022-11-10T11:21:45.457Z,3744.00
2022-11-10T11:22:37.790Z,4140.00
2022-11-10T11:23:38.401Z,3984.00
2022-11-10T11:24:40.978Z,4360.00
2022-11-10T11:25:44.095Z,4704.00
2022-11-10T11:26:38.453Z,4148.00
2022-11-10T11:27:40.749Z,3188.00
2022-11-10T11:28:37.943Z,2448.00
2022-11-10T11:29:38.472Z,3108.00
2022-11-10T11:30:40.489Z,4428.00
2022-11-10T11:31:42.825Z,4808.00
2022-11-10T11:32:44.567Z,4068.00
2022-11-10T11:33:38.020Z,2760.00
2022-11-10T11:34:37.827Z,2216.00
2022-11-10T11:35:39.183Z,2976.00
2022-11-10T11:36:37.797Z,3428.00
2022-11-10T11:37:37.880Z,4080.00
2022-11-10T11:38:37.789Z,4484.00
2022-11-10T11:39:38.501Z,4532.00
2022-11-10T11:40:39.606Z,4960.00
2022-11-10T11:41:37.993Z,5084.00
2022-11-10T11:42:38.015Z,4680.00
2022-11-10T11:43:37.819Z,4576.00
2022-11-10T11:44:40.462Z,4864.00
2022-11-10T11:45:39.515Z,5276.00
2022-11-10T11:46:48.982Z,5692.00
2022-11-10T11:47:39.079Z,5876.00
2022-11-10T11:48:39.491Z,6056.00
2022-11-10T11:49:38.681Z,5996.00
2022-11-10T11:50:40.204Z,6424.00
2022-11-10T11:51:38.808Z,7052.00
2022-11-10T11:52:40.013Z,7548.00
2022-11-10T11:53:38.539Z,8268.00
2022-11-10T11:54:39.733Z,5584.00
2022-11-10T11:55:37.783Z,8192.00
2022-11-10T11:56:39.466Z,7500.00
2022-11-10T11:57:40.469Z,6912.00
2022-11-10T11:58:43.972Z,7504.00
2022-11-10T11:59:37.786Z,7364.00
2022-11-10T12:00:37.817Z,7080.00
2022-11-10T12:01:37.975Z,7960.00
2022-11-10T12:02:39.579Z,8204.00
2022-11-10T12:03:37.802Z,8080.00
2022-11-10T12:04:37.794Z,4324.00
2022-11-10T12:05:38.010Z,7560.00
2022-11-10T12:06:37.959Z,8224.00
2022-11-10T12:07:39.570Z,9188.00
2022-11-10T12:08:37.909Z,8552.00
2022-11-10T12:09:41.847Z,5236.00
2022-11-10T12:10:42.813Z,9008.00
2022-11-10T12:11:37.859Z,9512.00
2022-11-10T12:12:39.048Z,4008.00
2022-11-10T12:13:53.132Z,9996.00
2022-11-10T12:14:41.683Z,4916.00
2022-11-10T12:15:38.297Z,8692.00
2022-11-10T12:16:44.589Z,11296.00
2022-11-10T12:17:39.364Z,8668.00
2022-11-10T12:18:42.616Z,10164.00
2022-11-10T12:20:38.083Z,5424.00
2022-11-10T12:21:40.663Z,3336.00
2022-11-10T12:22:57.647Z,11148.00
2022-11-10T12:23:41.263Z,11104.00
2022-11-10T12:24:41.153Z,10884.00
2022-11-10T12:25:37.871Z,10540.00
2022-11-10T12:26:39.916Z,10888.00
2022-11-10T12:27:38.773Z,4336.00
2022-11-10T12:28:41.221Z,10612.00
2022-11-10T12:29:54.924Z,10732.00
2022-11-10T12:30:38.933Z,10692.00
2022-11-10T12:31:39.918Z,10312.00
2022-11-10T12:32:39.522Z,11084.00
2022-11-10T12:33:46.903Z,11340.00
2022-11-10T12:34:38.802Z,12052.00
2022-11-10T12:35:39.559Z,20256.00
2022-11-10T12:36:38.478Z,33696.00
2022-11-10T12:37:40.544Z,39296.00
2022-11-10T12:38:37.875Z,37152.00
2022-11-10T12:39:37.841Z,37312.00
2022-11-10T12:40:42.056Z,34496.00
2022-11-10T12:41:45.122Z,34752.00
2022-11-10T12:42:44.041Z,32064.00
2022-11-10T12:43:40.624Z,23392.00
2022-11-10T12:44:38.083Z,34272.00
2022-11-10T12:45:38.148Z,32736.00
2022-11-10T12:46:41.396Z,32736.00
2022-11-10T12:47:39.104Z,24640.00
2022-11-10T12:48:38.993Z,17024.00
2022-11-10T12:49:37.888Z,29184.00
2022-11-10T12:50:40.986Z,32128.00
2022-11-10T12:51:37.962Z,4004.00
2022-11-10T12:52:43.017Z,3912.00
2022-11-10T12:53:38.494Z,10324.00
2022-11-10T12:54:37.907Z,2968.00
2022-11-10T12:55:38.202Z,4648.00
2022-11-10T12:56:38.499Z,12208.00
2022-11-10T12:57:40.682Z,4936.00
2022-11-10T12:58:38.287Z,6752.00
2022-11-10T12:59:39.758Z,2212.00
2022-11-10T13:00:44.198Z,1840.00
2022-11-10T13:01:46.326Z,1744.00
2022-11-10T13:02:38.918Z,1708.00
2022-11-10T13:03:37.999Z,1348.00
2022-11-10T13:04:38.117Z,1324.00
2022-11-10T13:05:39.689Z,1840.00
2022-11-10T13:06:40.754Z,4584.00
2022-11-10T13:07:40.672Z,16020.00
2022-11-10T13:08:46.247Z,5080.00
2022-11-10T13:09:38.062Z,4592.00
2022-11-10T13:10:39.066Z,12944.00
2022-11-10T13:11:40.176Z,3060.00
2022-11-10T13:12:38.640Z,2708.00
2022-11-10T13:13:37.926Z,12928.00
2022-11-10T13:14:39.925Z,4444.00
2022-11-10T13:15:38.253Z,5232.00
2022-11-10T13:16:39.653Z,6416.00
2022-11-10T13:17:44.926Z,10668.00
2022-11-10T13:18:37.995Z,30752.00
2022-11-10T13:19:40.604Z,30944.00
2022-11-10T13:20:39.585Z,28032.00
2022-11-10T13:21:39.887Z,15040.00
2022-11-10T13:22:39.643Z,27968.00
2022-11-10T13:23:39.552Z,27040.00
2022-11-10T13:24:37.968Z,27392.00
2022-11-10T13:25:39.604Z,27712.00
2022-11-10T13:26:39.588Z,25696.00
2022-11-10T13:27:39.580Z,29984.00
2022-11-10T13:28:37.939Z,29184.00
2022-11-10T13:29:37.935Z,24384.00
2022-11-10T13:30:37.941Z,23072.00
2022-11-10T13:31:39.071Z,8768.00
2022-11-10T13:32:37.937Z,24032.00
2022-11-10T13:33:37.941Z,24672.00
2022-11-10T13:34:39.582Z,6736.00
2022-11-10T13:35:37.975Z,3764.00
2022-11-10T13:36:37.959Z,3676.00
2022-11-10T13:37:37.948Z,3592.00
2022-11-10T13:38:38.029Z,3576.00
2022-11-10T13:39:40.108Z,2276.00
2022-11-10T13:40:37.969Z,2488.00
2022-11-10T13:41:38.053Z,2248.00
2022-11-10T13:42:43.287Z,1888.00
2022-11-10T13:43:39.662Z,2020.00
2022-11-10T13:44:39.707Z,2480.00
2022-11-10T13:45:39.041Z,2780.00
2022-11-10T13:46:39.647Z,2612.00
2022-11-10T13:47:39.581Z,2084.00
2022-11-10T13:48:39.581Z,1284.00
2022-11-10T13:49:39.623Z,1040.00
2022-11-10T13:50:38.980Z,1148.00
2022-11-10T13:51:39.597Z,1296.00
2022-11-10T13:52:39.597Z,1084.00
2022-11-10T13:53:40.295Z,1060.00
2022-11-10T13:54:39.133Z,1364.00
2022-11-10T13:55:39.599Z,1188.00
2022-11-10T13:56:38.158Z,1052.00
2022-11-10T13:57:52.644Z,1312.00
2022-11-10T13:58:38.914Z,1876.00
2022-11-10T13:59:37.958Z,1904.00
2022-11-10T14:00:41.190Z,1540.00
2022-11-10T14:01:39.637Z,1124.00
2022-11-10T14:02:39.640Z,912.00
2022-11-10T14:03:38.144Z,904.00
2022-11-10T14:04:44.709Z,1048.00
2022-11-10T14:05:40.777Z,1216.00
2022-11-10T14:06:39.840Z,1044.00
2022-11-10T14:07:37.950Z,772.00
2022-11-10T14:08:37.962Z,680.00
2022-11-10T14:09:40.274Z,648.00
2022-11-10T14:10:39.043Z,796.00
2022-11-10T14:11:40.630Z,1152.00
2022-11-10T14:12:37.955Z,1628.00
2022-11-10T14:13:39.624Z,2192.00
2022-11-10T14:14:37.966Z,6124.00
2022-11-10T14:15:38.977Z,3228.00
2022-11-10T14:16:39.011Z,4960.00
2022-11-10T14:17:39.131Z,6384.00
2022-11-10T14:18:38.667Z,15292.00
2022-11-10T14:19:39.675Z,8084.00
2022-11-10T14:20:37.946Z,10644.00
2022-11-10T14:21:38.973Z,4724.00
2022-11-10T14:22:39.124Z,6888.00
2022-11-10T14:23:40.327Z,5028.00
2022-11-10T14:24:37.952Z,9000.00
2022-11-10T14:25:39.151Z,9280.00
2022-11-10T14:26:39.618Z,9476.00
2022-11-10T14:27:37.964Z,6628.00
2022-11-10T14:28:38.099Z,3552.00
2022-11-10T14:29:39.667Z,2532.00
2022-11-10T14:30:39.819Z,2968.00
2022-11-10T14:31:37.948Z,2172.00
2022-11-10T14:32:37.928Z,2836.00
2022-11-10T14:33:39.622Z,2716.00
2022-11-10T14:34:39.648Z,2580.00
2022-11-10T14:35:37.924Z,2472.00
2022-11-10T14:36:39.636Z,2364.00
2022-11-10T14:37:39.648Z,2272.00
2022-11-10T14:38:37.923Z,2168.00
2022-11-10T14:39:39.640Z,2084.00
2022-11-10T14:40:39.641Z,2012.00
2022-11-10T14:41:38.021Z,1916.00
2022-11-10T14:42:45.716Z,1808.00
2022-11-10T14:43:40.638Z,1700.00
2022-11-10T14:44:37.938Z,1508.00
2022-11-10T14:45:46.996Z,1356.00
2022-11-10T14:47:38.620Z,1244.00
2022-11-10T14:48:38.007Z,1200.00
2022-11-10T14:49:38.925Z,1192.00
2022-11-10T14:50:37.905Z,1200.00
2022-11-10T14:51:39.669Z,1128.00
2022-11-10T14:52:40.676Z,1020.00
2022-11-10T14:53:39.744Z,960.00
2022-11-10T14:54:42.180Z,924.00
2022-11-10T14:55:39.722Z,728.00
2022-11-10T14:56:39.642Z,644.00
2022-11-10T14:57:39.761Z,608.00
2022-11-10T14:58:40.651Z,564.00
2022-11-10T14:59:39.675Z,544.00
2022-11-10T15:00:39.650Z,532.00
2022-11-10T15:01:39.658Z,528.00
2022-11-10T15:02:39.700Z,508.00
2022-11-10T15:03:39.686Z,492.00
2022-11-10T15:04:37.884Z,476.00
2022-11-10T15:05:37.880Z,464.00
2022-11-10T15:06:43.071Z,452.00
2022-11-10T15:07:39.710Z,436.00
2022-11-10T15:08:39.666Z,424.00
2022-11-10T15:09:37.872Z,416.00
2022-11-10T15:10:37.868Z,404.00
2022-11-10T15:11:37.871Z,392.00
2022-11-10T15:12:41.946Z,380.00
2022-11-10T15:13:39.794Z,372.00
2022-11-10T15:14:37.859Z,364.00
2022-11-10T15:15:37.857Z,360.00
2022-11-10T15:16:37.854Z,352.00
2022-11-10T15:17:39.662Z,348.00
2022-11-10T15:18:39.706Z,348.00
2022-11-10T15:19:39.689Z,348.00
2022-11-10T15:20:39.687Z,352.00
2022-11-10T15:21:39.665Z,364.00
2022-11-10T15:22:39.715Z,372.00
2022-11-10T15:23:39.676Z,360.00
2022-11-10T15:24:39.667Z,348.00
2022-11-10T15:25:39.681Z,328.00
2022-11-10T15:26:39.679Z,308.00
2022-11-10T15:27:39.671Z,284.00
2022-11-10T15:28:39.796Z,272.00
2022-11-10T15:29:39.804Z,252.00
2022-11-10T15:30:39.685Z,240.00
2022-11-10T15:31:39.674Z,220.00
2022-11-10T15:32:39.676Z,212.00
2022-11-10T15:33:39.677Z,200.00
2022-11-10T15:34:39.700Z,184.00
2022-11-10T15:35:39.684Z,172.00
2022-11-10T15:36:39.874Z,156.00
2022-11-10T15:37:39.697Z,148.00
2022-11-10T15:38:39.682Z,136.00
2022-11-10T15:39:39.806Z,128.00
2022-11-10T15:40:39.684Z,120.00
2022-11-10T15:41:39.683Z,112.00
2022-11-10T15:42:39.692Z,104.00
2022-11-10T15:43:39.697Z,96.00
2022-11-10T15:44:39.697Z,88.00
2022-11-10T15:45:39.795Z,84.00
2022-11-10T15:46:39.697Z,76.00
2022-11-10T15:47:37.793Z,72.00
2022-11-10T15:48:39.225Z,60.00
2022-11-10T15:49:38.781Z,56.00
2022-11-10T15:50:37.774Z,52.00
2022-11-10T15:51:39.711Z,44.00
2022-11-10T15:52:38.761Z,40.00
2022-11-10T15:53:38.846Z,40.00
2022-11-10T15:54:38.753Z,32.00
2022-11-10T15:55:37.749Z,32.00
2022-11-10T15:56:39.709Z,24.00
2022-11-10T15:57:37.745Z,20.00
2022-11-10T15:58:39.696Z,20.00
2022-11-10T15:59:37.739Z,16.00
2022-11-10T16:00:39.718Z,16.00
2022-11-10T16:12:45.741Z,0.00
2022-11-10T16:13:45.615Z,0.00
2022-11-10T16:14:45.607Z,0.00
2022-11-10T16:15:45.614Z,0.00
2022-11-10T16:16:45.623Z,0.00
2022-11-10T16:17:45.639Z,0.00
2022-11-10T16:18:45.611Z,0.00
2022-11-10T16:19:45.614Z,0.00
2022-11-10T16:20:45.614Z,0.00
2022-11-10T16:21:45.630Z,0.00
2022-11-10T16:22:45.616Z,0.00
2022-11-10T16:23:45.632Z,0.00
2022-11-10T16:24:45.616Z,0.00
2022-11-10T16:25:44.034Z,0.00
2022-11-10T16:26:44.027Z,0.00
2022-11-10T16:27:45.632Z,0.00
2022-11-10T16:28:44.251Z,0.00
2022-11-10T16:29:44.008Z,0.00
2022-11-10T16:30:45.621Z,0.00
2022-11-10T16:31:45.634Z,0.00
2022-11-10T16:32:44.007Z,0.00
2022-11-10T16:33:45.677Z,0.00
2022-11-10T16:34:45.641Z,0.00
2022-11-10T16:35:43.991Z,0.00
2022-11-10T16:36:45.646Z,0.00
2022-11-10T16:37:43.979Z,0.00
2022-11-10T16:38:45.654Z,0.00
2022-11-10T16:39:44.027Z,0.00
2022-11-10T16:40:45.633Z,0.00
2022-11-10T16:41:43.967Z,0.00
2022-11-10T16:42:45.685Z,0.00
2022-11-10T16:43:45.661Z,0.00
2022-11-10T16:44:45.297Z,0.00
2022-11-10T16:45:44.034Z,0.00
2022-11-10T16:46:43.949Z,0.00
2022-11-10T16:47:44.959Z,0.00
2022-11-10T16:48:44.947Z,0.00
2022-11-10T16:49:44.950Z,0.00
2022-11-10T16:50:45.196Z,0.00
2022-11-10T16:51:48.607Z,0.00
2022-11-10T16:52:43.955Z,0.00
2022-11-10T16:53:43.939Z,0.00
2022-11-10T16:54:43.926Z,0.00
2022-11-10T16:55:45.151Z,0.00
2022-11-10T16:56:43.914Z,0.00
2022-11-10T16:57:43.918Z,0.00
2022-11-10T16:58:45.665Z,0.00
2022-11-10T16:59:45.694Z,0.00
2022-11-10T17:00:45.771Z,0.00
2022-11-10T17:01:45.023Z,0.00
2022-11-10T17:02:51.218Z,0.00